sensor_id;sensor_type;location;lat;lon;timestamp;P1;durP1;ratioP1;P2;durP2;ratioP2
25015;SDS011;13029;46.286;7.488;2023-03-01T00:01:15;21.13;;;13.45;;
25015;SDS011;13029;46.286;7.488;2023-03-01T00:03:42;20.95;;;13.82;;
25015;SDS011;13029;46.286;7.488;2023-03-01T00:06:08;24.50;;;16.35;;
25015;SDS011;13029;46.286;7.488;2023-03-01T00:08:34;27.30;;;15.90;;
25015;SDS011;13029;46.286;7.488;2023-03-01T00:11:03;23.60;;;16.10;;
25015;SDS011;13029;46.286;7.488;2023-03-01T00:13:32;21.55;;;14.55;;
25015;SDS011;13029;46.286;7.488;2023-03-01T00:15:58;23.05;;;16.15;;
25015;SDS011;13029;46.286;7.488;2023-03-01T00:18:23;25.60;;;17.38;;
25015;SDS011;13029;46.286;7.488;2023-03-01T00:20:53;26.33;;;17.52;;
25015;SDS011;13029;46.286;7.488;2023-03-01T00:23:18;25.25;;;17.65;;
25015;SDS011;13029;46.286;7.488;2023-03-01T00:25:44;23.15;;;16.77;;
25015;SDS011;13029;46.286;7.488;2023-03-01T00:28:10;24.08;;;16.48;;
25015;SDS011;13029;46.286;7.488;2023-03-01T00:30:35;22.88;;;15.30;;
25015;SDS011;13029;46.286;7.488;2023-03-01T00:33:00;22.02;;;15.95;;
25015;SDS011;13029;46.286;7.488;2023-03-01T00:35:25;24.48;;;17.23;;
25015;SDS011;13029;46.286;7.488;2023-03-01T00:37:51;23.98;;;16.45;;
25015;SDS011;13029;46.286;7.488;2023-03-01T00:40:29;21.00;;;14.63;;
25015;SDS011;13029;46.286;7.488;2023-03-01T00:42:55;21.30;;;15.48;;
25015;SDS011;13029;46.286;7.488;2023-03-01T00:45:21;23.40;;;16.05;;
25015;SDS011;13029;46.286;7.488;2023-03-01T00:47:46;25.88;;;15.02;;
25015;SDS011;13029;46.286;7.488;2023-03-01T00:50:13;17.50;;;13.05;;
25015;SDS011;13029;46.286;7.488;2023-03-01T00:52:38;21.67;;;12.70;;
25015;SDS011;13029;46.286;7.488;2023-03-01T00:55:04;23.85;;;14.50;;
25015;SDS011;13029;46.286;7.488;2023-03-01T00:57:30;28.98;;;19.20;;
25015;SDS011;13029;46.286;7.488;2023-03-01T00:59:55;23.10;;;14.93;;
25015;SDS011;13029;46.286;7.488;2023-03-01T01:02:21;23.65;;;16.23;;
25015;SDS011;13029;46.286;7.488;2023-03-01T01:04:47;27.33;;;17.70;;
25015;SDS011;13029;46.286;7.488;2023-03-01T01:07:13;27.52;;;19.08;;
25015;SDS011;13029;46.286;7.488;2023-03-01T01:09:38;23.83;;;17.65;;
25015;SDS011;13029;46.286;7.488;2023-03-01T01:12:04;23.27;;;16.63;;
25015;SDS011;13029;46.286;7.488;2023-03-01T01:14:29;19.45;;;13.88;;
25015;SDS011;13029;46.286;7.488;2023-03-01T01:16:55;16.70;;;12.65;;
25015;SDS011;13029;46.286;7.488;2023-03-01T01:19:20;16.02;;;11.65;;
25015;SDS011;13029;46.286;7.488;2023-03-01T01:21:46;22.02;;;14.73;;
25015;SDS011;13029;46.286;7.488;2023-03-01T01:24:13;23.00;;;16.00;;
25015;SDS011;13029;46.286;7.488;2023-03-01T01:26:38;25.27;;;16.35;;
25015;SDS011;13029;46.286;7.488;2023-03-01T01:29:04;23.35;;;15.65;;
25015;SDS011;13029;46.286;7.488;2023-03-01T01:31:30;21.20;;;14.25;;
25015;SDS011;13029;46.286;7.488;2023-03-01T01:33:56;21.55;;;14.13;;
25015;SDS011;13029;46.286;7.488;2023-03-01T01:36:22;22.17;;;14.45;;
25015;SDS011;13029;46.286;7.488;2023-03-01T01:38:48;18.83;;;12.85;;
25015;SDS011;13029;46.286;7.488;2023-03-01T01:41:13;16.70;;;9.93;;
25015;SDS011;13029;46.286;7.488;2023-03-01T01:43:43;16.27;;;10.77;;
25015;SDS011;13029;46.286;7.488;2023-03-01T01:48:48;13.23;;;9.75;;
25015;SDS011;13029;46.286;7.488;2023-03-01T01:51:20;13.70;;;8.73;;
25015;SDS011;13029;46.286;7.488;2023-03-01T01:53:51;17.02;;;12.20;;
25015;SDS011;13029;46.286;7.488;2023-03-01T01:56:18;15.75;;;11.57;;
25015;SDS011;13029;46.286;7.488;2023-03-01T01:58:44;18.25;;;11.73;;
25015;SDS011;13029;46.286;7.488;2023-03-01T02:01:09;17.10;;;11.75;;
25015;SDS011;13029;46.286;7.488;2023-03-01T02:03:36;17.98;;;11.35;;
25015;SDS011;13029;46.286;7.488;2023-03-01T02:06:10;12.63;;;9.15;;
25015;SDS011;13029;46.286;7.488;2023-03-01T02:08:39;13.43;;;9.57;;
25015;SDS011;13029;46.286;7.488;2023-03-01T02:11:06;18.17;;;10.52;;
25015;SDS011;13029;46.286;7.488;2023-03-01T02:13:33;15.73;;;10.70;;
25015;SDS011;13029;46.286;7.488;2023-03-01T02:21:06;10.53;;;7.40;;
25015;SDS011;13029;46.286;7.488;2023-03-01T02:23:36;10.90;;;7.75;;
25015;SDS011;13029;46.286;7.488;2023-03-01T02:26:09;9.07;;;6.05;;
25015;SDS011;13029;46.286;7.488;2023-03-01T02:28:40;8.25;;;5.00;;
25015;SDS011;13029;46.286;7.488;2023-03-01T02:31:08;7.13;;;4.85;;
25015;SDS011;13029;46.286;7.488;2023-03-01T02:33:53;7.05;;;5.18;;
25015;SDS011;13029;46.286;7.488;2023-03-01T02:36:20;14.10;;;9.55;;
25015;SDS011;13029;46.286;7.488;2023-03-01T02:38:49;15.50;;;10.07;;
25015;SDS011;13029;46.286;7.488;2023-03-01T02:41:17;16.58;;;10.93;;
25015;SDS011;13029;46.286;7.488;2023-03-01T02:43:44;15.70;;;10.32;;
25015;SDS011;13029;46.286;7.488;2023-03-01T02:46:15;15.93;;;9.85;;
25015;SDS011;13029;46.286;7.488;2023-03-01T02:48:46;11.23;;;7.28;;
25015;SDS011;13029;46.286;7.488;2023-03-01T02:54:06;15.27;;;9.98;;
25015;SDS011;13029;46.286;7.488;2023-03-01T02:56:45;15.55;;;10.25;;
25015;SDS011;13029;46.286;7.488;2023-03-01T02:59:13;16.35;;;12.00;;
25015;SDS011;13029;46.286;7.488;2023-03-01T03:01:39;16.45;;;9.85;;
25015;SDS011;13029;46.286;7.488;2023-03-01T03:04:09;12.75;;;8.63;;
25015;SDS011;13029;46.286;7.488;2023-03-01T03:06:36;13.75;;;9.10;;
25015;SDS011;13029;46.286;7.488;2023-03-01T03:09:02;15.98;;;10.38;;
25015;SDS011;13029;46.286;7.488;2023-03-01T03:11:28;12.18;;;8.73;;
25015;SDS011;13029;46.286;7.488;2023-03-01T03:13:55;8.60;;;6.40;;
25015;SDS011;13029;46.286;7.488;2023-03-01T03:16:20;12.77;;;7.03;;
25015;SDS011;13029;46.286;7.488;2023-03-01T03:18:46;14.82;;;8.02;;
25015;SDS011;13029;46.286;7.488;2023-03-01T03:21:12;13.52;;;8.52;;
25015;SDS011;13029;46.286;7.488;2023-03-01T03:23:38;12.38;;;8.68;;
25015;SDS011;13029;46.286;7.488;2023-03-01T03:26:04;13.18;;;9.48;;
25015;SDS011;13029;46.286;7.488;2023-03-01T03:28:30;16.85;;;10.48;;
25015;SDS011;13029;46.286;7.488;2023-03-01T03:30:56;18.30;;;12.98;;
25015;SDS011;13029;46.286;7.488;2023-03-01T03:33:21;20.20;;;13.65;;
25015;SDS011;13029;46.286;7.488;2023-03-01T03:35:48;22.10;;;15.25;;
25015;SDS011;13029;46.286;7.488;2023-03-01T03:38:14;26.83;;;17.75;;
25015;SDS011;13029;46.286;7.488;2023-03-01T03:40:42;32.05;;;20.02;;
25015;SDS011;13029;46.286;7.488;2023-03-01T03:43:11;30.05;;;19.33;;
25015;SDS011;13029;46.286;7.488;2023-03-01T03:45:37;26.05;;;17.17;;
25015;SDS011;13029;46.286;7.488;2023-03-01T03:48:03;19.73;;;12.32;;
25015;SDS011;13029;46.286;7.488;2023-03-01T03:50:30;18.05;;;10.80;;
25015;SDS011;13029;46.286;7.488;2023-03-01T03:52:55;21.88;;;13.40;;
25015;SDS011;13029;46.286;7.488;2023-03-01T03:55:20;21.65;;;14.68;;
25015;SDS011;13029;46.286;7.488;2023-03-01T03:57:46;23.52;;;15.27;;
25015;SDS011;13029;46.286;7.488;2023-03-01T04:00:16;24.90;;;17.05;;
25015;SDS011;13029;46.286;7.488;2023-03-01T04:02:43;27.77;;;20.05;;
25015;SDS011;13029;46.286;7.488;2023-03-01T04:05:09;31.05;;;20.08;;
25015;SDS011;13029;46.286;7.488;2023-03-01T04:07:35;34.40;;;21.67;;
25015;SDS011;13029;46.286;7.488;2023-03-01T04:10:04;26.90;;;18.00;;
25015;SDS011;13029;46.286;7.488;2023-03-01T04:12:32;21.65;;;14.35;;
25015;SDS011;13029;46.286;7.488;2023-03-01T04:14:59;24.83;;;13.88;;
25015;SDS011;13029;46.286;7.488;2023-03-01T04:17:25;20.08;;;13.90;;
25015;SDS011;13029;46.286;7.488;2023-03-01T04:19:50;20.35;;;13.70;;
25015;SDS011;13029;46.286;7.488;2023-03-01T04:22:15;32.92;;;18.40;;
25015;SDS011;13029;46.286;7.488;2023-03-01T04:24:43;32.42;;;19.45;;
25015;SDS011;13029;46.286;7.488;2023-03-01T04:27:09;29.73;;;20.30;;
25015;SDS011;13029;46.286;7.488;2023-03-01T04:29:34;30.92;;;21.23;;
25015;SDS011;13029;46.286;7.488;2023-03-01T04:31:59;33.40;;;20.35;;
25015;SDS011;13029;46.286;7.488;2023-03-01T04:34:25;29.52;;;19.70;;
25015;SDS011;13029;46.286;7.488;2023-03-01T04:36:52;31.27;;;19.70;;
25015;SDS011;13029;46.286;7.488;2023-03-01T04:39:17;28.92;;;19.45;;
25015;SDS011;13029;46.286;7.488;2023-03-01T04:41:42;28.27;;;18.77;;
25015;SDS011;13029;46.286;7.488;2023-03-01T04:44:08;30.00;;;19.25;;
25015;SDS011;13029;46.286;7.488;2023-03-01T04:46:34;26.98;;;18.17;;
25015;SDS011;13029;46.286;7.488;2023-03-01T04:48:59;26.40;;;16.80;;
25015;SDS011;13029;46.286;7.488;2023-03-01T04:51:25;27.23;;;17.27;;
25015;SDS011;13029;46.286;7.488;2023-03-01T04:53:50;25.85;;;15.85;;
25015;SDS011;13029;46.286;7.488;2023-03-01T04:56:16;27.65;;;16.42;;
25015;SDS011;13029;46.286;7.488;2023-03-01T04:58:43;27.73;;;19.15;;
25015;SDS011;13029;46.286;7.488;2023-03-01T05:01:09;30.90;;;19.45;;
25015;SDS011;13029;46.286;7.488;2023-03-01T05:03:41;33.67;;;21.02;;
25015;SDS011;13029;46.286;7.488;2023-03-01T05:06:10;33.55;;;22.40;;
25015;SDS011;13029;46.286;7.488;2023-03-01T05:08:37;35.95;;;22.30;;
25015;SDS011;13029;46.286;7.488;2023-03-01T05:11:03;32.47;;;20.77;;
25015;SDS011;13029;46.286;7.488;2023-03-01T05:13:28;32.00;;;20.67;;
25015;SDS011;13029;46.286;7.488;2023-03-01T05:15:55;35.42;;;22.13;;
25015;SDS011;13029;46.286;7.488;2023-03-01T05:18:21;39.08;;;23.92;;
25015;SDS011;13029;46.286;7.488;2023-03-01T05:20:50;34.53;;;21.50;;
25015;SDS011;13029;46.286;7.488;2023-03-01T05:23:16;32.55;;;20.85;;
25015;SDS011;13029;46.286;7.488;2023-03-01T05:25:43;29.40;;;19.80;;
25015;SDS011;13029;46.286;7.488;2023-03-01T05:28:11;31.08;;;20.63;;
25015;SDS011;13029;46.286;7.488;2023-03-01T05:30:37;29.65;;;18.33;;
25015;SDS011;13029;46.286;7.488;2023-03-01T05:33:05;32.70;;;19.55;;
25015;SDS011;13029;46.286;7.488;2023-03-01T05:35:38;28.10;;;19.08;;
25015;SDS011;13029;46.286;7.488;2023-03-01T05:38:03;28.50;;;17.75;;
25015;SDS011;13029;46.286;7.488;2023-03-01T05:40:29;30.95;;;18.67;;
25015;SDS011;13029;46.286;7.488;2023-03-01T05:42:55;27.23;;;17.13;;
25015;SDS011;13029;46.286;7.488;2023-03-01T05:45:21;26.88;;;16.23;;
25015;SDS011;13029;46.286;7.488;2023-03-01T05:47:48;19.13;;;12.48;;
25015;SDS011;13029;46.286;7.488;2023-03-01T05:50:15;19.90;;;11.05;;
25015;SDS011;13029;46.286;7.488;2023-03-01T05:52:44;16.30;;;10.38;;
25015;SDS011;13029;46.286;7.488;2023-03-01T05:55:13;18.67;;;12.23;;
25015;SDS011;13029;46.286;7.488;2023-03-01T05:57:39;25.10;;;16.40;;
25015;SDS011;13029;46.286;7.488;2023-03-01T06:00:05;25.27;;;15.68;;
25015;SDS011;13029;46.286;7.488;2023-03-01T06:02:31;23.35;;;14.88;;
25015;SDS011;13029;46.286;7.488;2023-03-01T06:04:56;27.48;;;16.85;;
25015;SDS011;13029;46.286;7.488;2023-03-01T06:07:21;34.55;;;17.35;;
25015;SDS011;13029;46.286;7.488;2023-03-01T06:09:47;22.73;;;15.32;;
25015;SDS011;13029;46.286;7.488;2023-03-01T06:12:12;19.35;;;12.57;;
25015;SDS011;13029;46.286;7.488;2023-03-01T06:14:37;14.90;;;9.80;;
25015;SDS011;13029;46.286;7.488;2023-03-01T06:17:03;23.10;;;13.40;;
25015;SDS011;13029;46.286;7.488;2023-03-01T06:19:28;21.10;;;13.77;;
25015;SDS011;13029;46.286;7.488;2023-03-01T06:21:53;17.92;;;11.40;;
25015;SDS011;13029;46.286;7.488;2023-03-01T06:24:19;16.50;;;10.65;;
25015;SDS011;13029;46.286;7.488;2023-03-01T06:26:44;16.42;;;10.68;;
25015;SDS011;13029;46.286;7.488;2023-03-01T06:29:10;13.85;;;8.98;;
25015;SDS011;13029;46.286;7.488;2023-03-01T06:31:36;17.40;;;9.23;;
25015;SDS011;13029;46.286;7.488;2023-03-01T06:34:01;21.25;;;13.85;;
25015;SDS011;13029;46.286;7.488;2023-03-01T06:36:27;27.02;;;17.05;;
25015;SDS011;13029;46.286;7.488;2023-03-01T06:38:52;31.25;;;19.63;;
25015;SDS011;13029;46.286;7.488;2023-03-01T06:41:17;33.25;;;19.75;;
25015;SDS011;13029;46.286;7.488;2023-03-01T06:43:42;28.60;;;19.63;;
25015;SDS011;13029;46.286;7.488;2023-03-01T06:46:08;28.60;;;18.23;;
25015;SDS011;13029;46.286;7.488;2023-03-01T06:48:33;22.90;;;15.00;;
25015;SDS011;13029;46.286;7.488;2023-03-01T06:51:00;23.13;;;13.07;;
25015;SDS011;13029;46.286;7.488;2023-03-01T06:53:26;26.58;;;15.48;;
25015;SDS011;13029;46.286;7.488;2023-03-01T06:55:56;26.27;;;14.82;;
25015;SDS011;13029;46.286;7.488;2023-03-01T06:58:22;22.23;;;13.13;;
25015;SDS011;13029;46.286;7.488;2023-03-01T07:00:47;18.20;;;12.73;;
25015;SDS011;13029;46.286;7.488;2023-03-01T07:03:13;26.77;;;16.85;;
25015;SDS011;13029;46.286;7.488;2023-03-01T07:08:22;22.25;;;15.40;;
25015;SDS011;13029;46.286;7.488;2023-03-01T07:10:48;29.65;;;19.58;;
25015;SDS011;13029;46.286;7.488;2023-03-01T07:13:13;37.50;;;22.15;;
25015;SDS011;13029;46.286;7.488;2023-03-01T07:15:39;32.55;;;20.63;;
25015;SDS011;13029;46.286;7.488;2023-03-01T07:18:05;32.97;;;19.77;;
25015;SDS011;13029;46.286;7.488;2023-03-01T07:20:30;36.25;;;24.77;;
25015;SDS011;13029;46.286;7.488;2023-03-01T07:22:55;41.38;;;27.77;;
25015;SDS011;13029;46.286;7.488;2023-03-01T07:25:23;41.20;;;27.83;;
25015;SDS011;13029;46.286;7.488;2023-03-01T07:27:51;39.85;;;27.85;;
25015;SDS011;13029;46.286;7.488;2023-03-01T07:30:17;42.38;;;27.55;;
25015;SDS011;13029;46.286;7.488;2023-03-01T07:32:42;37.63;;;26.52;;
25015;SDS011;13029;46.286;7.488;2023-03-01T07:35:08;35.88;;;26.33;;
25015;SDS011;13029;46.286;7.488;2023-03-01T07:37:33;38.17;;;26.40;;
25015;SDS011;13029;46.286;7.488;2023-03-01T07:39:58;36.38;;;25.33;;
25015;SDS011;13029;46.286;7.488;2023-03-01T07:42:24;37.90;;;26.05;;
25015;SDS011;13029;46.286;7.488;2023-03-01T07:44:49;39.38;;;26.88;;
25015;SDS011;13029;46.286;7.488;2023-03-01T07:47:14;41.67;;;27.80;;
25015;SDS011;13029;46.286;7.488;2023-03-01T07:49:40;39.00;;;26.83;;
25015;SDS011;13029;46.286;7.488;2023-03-01T07:52:05;37.72;;;27.38;;
25015;SDS011;13029;46.286;7.488;2023-03-01T07:54:30;38.40;;;28.02;;
25015;SDS011;13029;46.286;7.488;2023-03-01T07:56:56;42.15;;;28.88;;
25015;SDS011;13029;46.286;7.488;2023-03-01T07:59:22;43.33;;;28.33;;
25015;SDS011;13029;46.286;7.488;2023-03-01T08:01:53;38.33;;;27.02;;
25015;SDS011;13029;46.286;7.488;2023-03-01T08:04:18;41.78;;;28.45;;
25015;SDS011;13029;46.286;7.488;2023-03-01T08:06:44;38.83;;;27.27;;
25015;SDS011;13029;46.286;7.488;2023-03-01T08:09:09;37.00;;;26.73;;
25015;SDS011;13029;46.286;7.488;2023-03-01T08:11:34;41.22;;;27.77;;
25015;SDS011;13029;46.286;7.488;2023-03-01T08:14:00;43.45;;;28.65;;
25015;SDS011;13029;46.286;7.488;2023-03-01T08:16:25;38.97;;;26.08;;
25015;SDS011;13029;46.286;7.488;2023-03-01T08:18:50;39.08;;;27.67;;
25015;SDS011;13029;46.286;7.488;2023-03-01T08:21:16;42.88;;;28.02;;
25015;SDS011;13029;46.286;7.488;2023-03-01T08:23:43;38.63;;;27.38;;
25015;SDS011;13029;46.286;7.488;2023-03-01T08:26:12;38.22;;;27.60;;
25015;SDS011;13029;46.286;7.488;2023-03-01T08:28:38;31.48;;;21.15;;
25015;SDS011;13029;46.286;7.488;2023-03-01T08:31:18;44.05;;;29.83;;
25015;SDS011;13029;46.286;7.488;2023-03-01T08:33:56;41.75;;;28.83;;
25015;SDS011;13029;46.286;7.488;2023-03-01T08:36:23;39.40;;;26.05;;
25015;SDS011;13029;46.286;7.488;2023-03-01T08:38:50;39.83;;;27.02;;
25015;SDS011;13029;46.286;7.488;2023-03-01T08:41:15;38.90;;;27.05;;
25015;SDS011;13029;46.286;7.488;2023-03-01T08:43:41;34.92;;;25.00;;
25015;SDS011;13029;46.286;7.488;2023-03-01T08:46:06;31.02;;;20.77;;
25015;SDS011;13029;46.286;7.488;2023-03-01T08:48:31;39.28;;;26.58;;
25015;SDS011;13029;46.286;7.488;2023-03-01T08:50:57;42.88;;;29.27;;
25015;SDS011;13029;46.286;7.488;2023-03-01T08:53:22;39.90;;;27.80;;
25015;SDS011;13029;46.286;7.488;2023-03-01T08:55:47;38.85;;;26.60;;
25015;SDS011;13029;46.286;7.488;2023-03-01T08:58:13;41.40;;;28.63;;
25015;SDS011;13029;46.286;7.488;2023-03-01T09:00:38;40.45;;;27.55;;
25015;SDS011;13029;46.286;7.488;2023-03-01T09:03:05;37.83;;;25.40;;
25015;SDS011;13029;46.286;7.488;2023-03-01T09:05:33;32.70;;;22.90;;
25015;SDS011;13029;46.286;7.488;2023-03-01T09:07:59;40.72;;;25.63;;
25015;SDS011;13029;46.286;7.488;2023-03-01T09:10:24;38.70;;;25.20;;
25015;SDS011;13029;46.286;7.488;2023-03-01T09:12:49;33.45;;;25.65;;
25015;SDS011;13029;46.286;7.488;2023-03-01T09:15:16;42.85;;;27.17;;
25015;SDS011;13029;46.286;7.488;2023-03-01T09:17:41;35.38;;;26.20;;
25015;SDS011;13029;46.286;7.488;2023-03-01T09:20:06;39.33;;;25.95;;
25015;SDS011;13029;46.286;7.488;2023-03-01T09:22:35;33.65;;;25.20;;
25015;SDS011;13029;46.286;7.488;2023-03-01T09:25:00;22.70;;;11.88;;
25015;SDS011;13029;46.286;7.488;2023-03-01T09:27:26;30.65;;;20.73;;
25015;SDS011;13029;46.286;7.488;2023-03-01T09:29:51;34.47;;;25.13;;
25015;SDS011;13029;46.286;7.488;2023-03-01T09:32:16;37.03;;;21.55;;
25015;SDS011;13029;46.286;7.488;2023-03-01T09:34:42;39.08;;;26.70;;
25015;SDS011;13029;46.286;7.488;2023-03-01T09:37:26;43.17;;;28.75;;
25015;SDS011;13029;46.286;7.488;2023-03-01T09:39:51;36.53;;;25.90;;
25015;SDS011;13029;46.286;7.488;2023-03-01T09:42:17;35.95;;;25.65;;
25015;SDS011;13029;46.286;7.488;2023-03-01T09:44:53;35.40;;;26.42;;
25015;SDS011;13029;46.286;7.488;2023-03-01T09:47:26;34.20;;;25.30;;
25015;SDS011;13029;46.286;7.488;2023-03-01T09:49:59;33.20;;;25.98;;
25015;SDS011;13029;46.286;7.488;2023-03-01T09:54:59;32.67;;;23.35;;
25015;SDS011;13029;46.286;7.488;2023-03-01T09:57:30;28.80;;;21.85;;
25015;SDS011;13029;46.286;7.488;2023-03-01T10:09:00;32.25;;;24.90;;
25015;SDS011;13029;46.286;7.488;2023-03-01T10:11:48;35.53;;;23.90;;
25015;SDS011;13029;46.286;7.488;2023-03-01T10:14:27;29.08;;;24.17;;
25015;SDS011;13029;46.286;7.488;2023-03-01T10:16:55;27.48;;;23.45;;
25015;SDS011;13029;46.286;7.488;2023-03-01T10:19:32;31.85;;;22.80;;
25015;SDS011;13029;46.286;7.488;2023-03-01T10:24:57;26.83;;;21.23;;
25015;SDS011;13029;46.286;7.488;2023-03-01T10:27:24;19.20;;;16.70;;
25015;SDS011;13029;46.286;7.488;2023-03-01T10:30:02;23.25;;;17.60;;
25015;SDS011;13029;46.286;7.488;2023-03-01T10:32:36;25.08;;;20.92;;
25015;SDS011;13029;46.286;7.488;2023-03-01T10:35:04;23.92;;;19.75;;
25015;SDS011;13029;46.286;7.488;2023-03-01T10:37:46;32.55;;;24.90;;
25015;SDS011;13029;46.286;7.488;2023-03-01T10:40:24;24.63;;;20.00;;
25015;SDS011;13029;46.286;7.488;2023-03-01T10:42:49;22.50;;;19.15;;
25015;SDS011;13029;46.286;7.488;2023-03-01T10:48:11;28.27;;;22.90;;
25015;SDS011;13029;46.286;7.488;2023-03-01T10:50:48;27.70;;;24.23;;
25015;SDS011;13029;46.286;7.488;2023-03-01T10:55:50;32.13;;;23.17;;
25015;SDS011;13029;46.286;7.488;2023-03-01T10:58:22;27.83;;;23.75;;
25015;SDS011;13029;46.286;7.488;2023-03-01T11:01:06;30.30;;;22.85;;
25015;SDS011;13029;46.286;7.488;2023-03-01T11:03:41;30.83;;;21.40;;
25015;SDS011;13029;46.286;7.488;2023-03-01T11:06:20;30.90;;;22.33;;
25015;SDS011;13029;46.286;7.488;2023-03-01T11:08:48;25.77;;;22.08;;
25015;SDS011;13029;46.286;7.488;2023-03-01T11:11:18;26.08;;;23.20;;
25015;SDS011;13029;46.286;7.488;2023-03-01T11:16:49;27.25;;;22.27;;
25015;SDS011;13029;46.286;7.488;2023-03-01T11:19:23;32.72;;;23.60;;
25015;SDS011;13029;46.286;7.488;2023-03-01T11:25:07;34.25;;;22.23;;
25015;SDS011;13029;46.286;7.488;2023-03-01T11:29:58;24.70;;;22.10;;
25015;SDS011;13029;46.286;7.488;2023-03-01T11:32:25;26.98;;;22.98;;
25015;SDS011;13029;46.286;7.488;2023-03-01T11:35:38;28.60;;;23.40;;
25015;SDS011;13029;46.286;7.488;2023-03-01T11:37:57;26.83;;;22.70;;
25015;SDS011;13029;46.286;7.488;2023-03-01T11:43:13;27.30;;;24.33;;
25015;SDS011;13029;46.286;7.488;2023-03-01T11:48:31;28.20;;;24.77;;
25015;SDS011;13029;46.286;7.488;2023-03-01T11:51:11;29.85;;;24.45;;
25015;SDS011;13029;46.286;7.488;2023-03-01T11:56:29;28.30;;;23.77;;
25015;SDS011;13029;46.286;7.488;2023-03-01T11:59:07;27.83;;;23.10;;
25015;SDS011;13029;46.286;7.488;2023-03-01T12:01:48;28.02;;;22.65;;
25015;SDS011;13029;46.286;7.488;2023-03-01T12:07:07;25.60;;;21.50;;
25015;SDS011;13029;46.286;7.488;2023-03-01T12:20:05;22.95;;;19.70;;
25015;SDS011;13029;46.286;7.488;2023-03-01T12:22:44;29.00;;;19.80;;
25015;SDS011;13029;46.286;7.488;2023-03-01T12:25:21;23.58;;;20.20;;
25015;SDS011;13029;46.286;7.488;2023-03-01T12:36:31;24.73;;;19.45;;
25015;SDS011;13029;46.286;7.488;2023-03-01T12:44:54;28.92;;;19.90;;
25015;SDS011;13029;46.286;7.488;2023-03-01T12:49:54;20.50;;;18.33;;
25015;SDS011;13029;46.286;7.488;2023-03-01T12:55:06;23.25;;;17.60;;
25015;SDS011;13029;46.286;7.488;2023-03-01T12:57:41;29.48;;;19.35;;
25015;SDS011;13029;46.286;7.488;2023-03-01T13:00:28;27.77;;;18.67;;
25015;SDS011;13029;46.286;7.488;2023-03-01T13:06:12;22.08;;;18.08;;
25015;SDS011;13029;46.286;7.488;2023-03-01T13:09:05;30.58;;;18.65;;
25015;SDS011;13029;46.286;7.488;2023-03-01T13:11:31;22.40;;;17.27;;
25015;SDS011;13029;46.286;7.488;2023-03-01T13:14:34;25.02;;;19.00;;
25015;SDS011;13029;46.286;7.488;2023-03-01T13:16:48;26.05;;;18.63;;
25015;SDS011;13029;46.286;7.488;2023-03-01T13:21:49;30.05;;;19.40;;
25015;SDS011;13029;46.286;7.488;2023-03-01T13:29:30;26.17;;;19.60;;
25015;SDS011;13029;46.286;7.488;2023-03-01T13:32:18;22.80;;;18.35;;
25015;SDS011;13029;46.286;7.488;2023-03-01T13:34:45;24.25;;;18.58;;
25015;SDS011;13029;46.286;7.488;2023-03-01T13:37:18;24.60;;;18.70;;
25015;SDS011;13029;46.286;7.488;2023-03-01T13:39:45;24.77;;;18.38;;
25015;SDS011;13029;46.286;7.488;2023-03-01T13:45:13;27.23;;;19.52;;
25015;SDS011;13029;46.286;7.488;2023-03-01T13:47:39;26.15;;;18.73;;
25015;SDS011;13029;46.286;7.488;2023-03-01T13:50:06;27.90;;;19.88;;
25015;SDS011;13029;46.286;7.488;2023-03-01T13:55:21;27.75;;;20.20;;
25015;SDS011;13029;46.286;7.488;2023-03-01T13:57:50;28.95;;;19.63;;
25015;SDS011;13029;46.286;7.488;2023-03-01T14:00:36;25.77;;;18.58;;
25015;SDS011;13029;46.286;7.488;2023-03-01T14:03:15;24.60;;;19.15;;
25015;SDS011;13029;46.286;7.488;2023-03-01T14:06:30;26.83;;;19.98;;
25015;SDS011;13029;46.286;7.488;2023-03-01T14:08:40;25.23;;;19.63;;
25015;SDS011;13029;46.286;7.488;2023-03-01T14:19:32;26.90;;;19.00;;
25015;SDS011;13029;46.286;7.488;2023-03-01T14:22:13;25.02;;;18.40;;
25015;SDS011;13029;46.286;7.488;2023-03-01T14:24:46;25.30;;;18.48;;
25015;SDS011;13029;46.286;7.488;2023-03-01T14:27:14;26.47;;;19.27;;
25015;SDS011;13029;46.286;7.488;2023-03-01T14:29:40;26.75;;;18.88;;
25015;SDS011;13029;46.286;7.488;2023-03-01T14:32:15;26.88;;;18.95;;
25015;SDS011;13029;46.286;7.488;2023-03-01T14:34:44;30.52;;;19.30;;
25015;SDS011;13029;46.286;7.488;2023-03-01T14:37:19;31.20;;;19.10;;
25015;SDS011;13029;46.286;7.488;2023-03-01T14:39:45;27.20;;;18.58;;
25015;SDS011;13029;46.286;7.488;2023-03-01T14:42:11;25.42;;;18.83;;
25015;SDS011;13029;46.286;7.488;2023-03-01T14:44:37;24.02;;;18.27;;
25015;SDS011;13029;46.286;7.488;2023-03-01T14:47:02;24.48;;;18.10;;
25015;SDS011;13029;46.286;7.488;2023-03-01T14:49:30;27.75;;;18.77;;
25015;SDS011;13029;46.286;7.488;2023-03-01T14:54:26;23.33;;;17.58;;
25015;SDS011;13029;46.286;7.488;2023-03-01T14:56:58;26.02;;;17.60;;
25015;SDS011;13029;46.286;7.488;2023-03-01T14:59:25;26.40;;;18.67;;
25015;SDS011;13029;46.286;7.488;2023-03-01T15:01:51;28.27;;;19.08;;
25015;SDS011;13029;46.286;7.488;2023-03-01T15:04:18;26.33;;;18.85;;
25015;SDS011;13029;46.286;7.488;2023-03-01T15:06:44;26.70;;;18.65;;
25015;SDS011;13029;46.286;7.488;2023-03-01T15:09:14;29.40;;;18.02;;
25015;SDS011;13029;46.286;7.488;2023-03-01T15:11:41;25.98;;;18.23;;
25015;SDS011;13029;46.286;7.488;2023-03-01T15:17:17;30.13;;;19.48;;
25015;SDS011;13029;46.286;7.488;2023-03-01T15:19:46;30.67;;;19.30;;
25015;SDS011;13029;46.286;7.488;2023-03-01T15:22:14;26.52;;;18.02;;
25015;SDS011;13029;46.286;7.488;2023-03-01T15:24:40;25.38;;;18.80;;
25015;SDS011;13029;46.286;7.488;2023-03-01T15:27:13;25.80;;;19.20;;
25015;SDS011;13029;46.286;7.488;2023-03-01T15:29:47;26.30;;;18.95;;
25015;SDS011;13029;46.286;7.488;2023-03-01T15:34:56;30.63;;;19.23;;
25015;SDS011;13029;46.286;7.488;2023-03-01T15:40:17;25.58;;;18.80;;
25015;SDS011;13029;46.286;7.488;2023-03-01T15:42:48;26.83;;;18.98;;
25015;SDS011;13029;46.286;7.488;2023-03-01T15:47:46;33.42;;;20.35;;
25015;SDS011;13029;46.286;7.488;2023-03-01T15:52:55;33.78;;;19.83;;
25015;SDS011;13029;46.286;7.488;2023-03-01T15:55:22;26.92;;;19.55;;
25015;SDS011;13029;46.286;7.488;2023-03-01T15:57:49;28.75;;;19.73;;
25015;SDS011;13029;46.286;7.488;2023-03-01T16:00:15;29.42;;;19.50;;
25015;SDS011;13029;46.286;7.488;2023-03-01T16:02:42;26.73;;;19.35;;
25015;SDS011;13029;46.286;7.488;2023-03-01T16:05:22;27.45;;;20.05;;
25015;SDS011;13029;46.286;7.488;2023-03-01T16:07:49;28.13;;;19.83;;
25015;SDS011;13029;46.286;7.488;2023-03-01T16:10:16;29.08;;;19.77;;
25015;SDS011;13029;46.286;7.488;2023-03-01T16:12:41;30.00;;;19.75;;
25015;SDS011;13029;46.286;7.488;2023-03-01T16:15:20;28.45;;;20.45;;
25015;SDS011;13029;46.286;7.488;2023-03-01T16:17:48;27.90;;;19.77;;
25015;SDS011;13029;46.286;7.488;2023-03-01T16:20:13;31.75;;;20.25;;
25015;SDS011;13029;46.286;7.488;2023-03-01T16:22:42;26.65;;;19.80;;
25015;SDS011;13029;46.286;7.488;2023-03-01T16:25:09;30.70;;;19.98;;
25015;SDS011;13029;46.286;7.488;2023-03-01T16:27:35;29.70;;;20.92;;
25015;SDS011;13029;46.286;7.488;2023-03-01T16:30:00;31.08;;;19.58;;
25015;SDS011;13029;46.286;7.488;2023-03-01T16:32:25;26.33;;;19.55;;
25015;SDS011;13029;46.286;7.488;2023-03-01T16:34:51;30.48;;;20.48;;